sensor_id;sensor_type;location;lat;lon;timestamp;temperature;humidity
26579;DHT22;14227;47.674;19.320;2024-02-26T00:00:38;10.30;90.80
26579;DHT22;14227;47.674;19.320;2024-02-26T00:03:04;10.30;91.00
26579;DHT22;14227;47.674;19.320;2024-02-26T00:05:30;10.20;91.20
26579;DHT22;14227;47.674;19.320;2024-02-26T00:07:57;10.20;91.10
26579;DHT22;14227;47.674;19.320;2024-02-26T00:10:22;10.20;91.60
26579;DHT22;14227;47.674;19.320;2024-02-26T00:12:48;10.20;91.90
26579;DHT22;14227;47.674;19.320;2024-02-26T00:15:14;10.20;91.90
26579;DHT22;14227;47.674;19.320;2024-02-26T00:17:40;10.20;92.00
26579;DHT22;14227;47.674;19.320;2024-02-26T00:20:06;10.20;91.90
26579;DHT22;14227;47.674;19.320;2024-02-26T00:22:35;10.20;92.30
26579;DHT22;14227;47.674;19.320;2024-02-26T00:25:01;10.20;92.10
26579;DHT22;14227;47.674;19.320;2024-02-26T00:27:27;10.20;92.20
26579;DHT22;14227;47.674;19.320;2024-02-26T00:29:52;10.20;92.20
26579;DHT22;14227;47.674;19.320;2024-02-26T00:32:18;10.20;92.00
26579;DHT22;14227;47.674;19.320;2024-02-26T00:34:44;10.20;91.80
26579;DHT22;14227;47.674;19.320;2024-02-26T00:37:10;10.20;91.60
26579;DHT22;14227;47.674;19.320;2024-02-26T00:39:35;10.20;91.50
26579;DHT22;14227;47.674;19.320;2024-02-26T00:42:01;10.20;91.60
26579;DHT22;14227;47.674;19.320;2024-02-26T00:44:27;10.20;91.20
26579;DHT22;14227;47.674;19.320;2024-02-26T00:46:52;10.20;91.20
26579;DHT22;14227;47.674;19.320;2024-02-26T00:49:18;10.20;91.20
26579;DHT22;14227;47.674;19.320;2024-02-26T00:51:44;10.20;91.20
26579;DHT22;14227;47.674;19.320;2024-02-26T00:54:10;10.20;91.20
26579;DHT22;14227;47.674;19.320;2024-02-26T00:56:35;10.30;91.30
26579;DHT22;14227;47.674;19.320;2024-02-26T00:59:04;10.30;91.50
26579;DHT22;14227;47.674;19.320;2024-02-26T01:01:30;10.30;91.30
26579;DHT22;14227;47.674;19.320;2024-02-26T01:03:56;10.30;91.20
26579;DHT22;14227;47.674;19.320;2024-02-26T01:06:22;10.40;91.30
26579;DHT22;14227;47.674;19.320;2024-02-26T01:08:47;10.40;91.30
26579;DHT22;14227;47.674;19.320;2024-02-26T01:11:13;10.40;91.30
26579;DHT22;14227;47.674;19.320;2024-02-26T01:13:39;10.40;91.30
26579;DHT22;14227;47.674;19.320;2024-02-26T01:16:05;10.40;91.30
26579;DHT22;14227;47.674;19.320;2024-02-26T01:18:31;10.40;91.20
26579;DHT22;14227;47.674;19.320;2024-02-26T01:20:56;10.40;91.20
26579;DHT22;14227;47.674;19.320;2024-02-26T01:23:22;10.40;91.20
26579;DHT22;14227;47.674;19.320;2024-02-26T01:25:48;10.40;91.20
26579;DHT22;14227;47.674;19.320;2024-02-26T01:28:14;10.40;91.00
26579;DHT22;14227;47.674;19.320;2024-02-26T01:30:40;10.40;91.00
26579;DHT22;14227;47.674;19.320;2024-02-26T01:33:05;10.40;90.80
26579;DHT22;14227;47.674;19.320;2024-02-26T01:35:34;10.40;90.70
26579;DHT22;14227;47.674;19.320;2024-02-26T01:37:59;10.30;90.60
26579;DHT22;14227;47.674;19.320;2024-02-26T01:40:28;10.40;90.60
26579;DHT22;14227;47.674;19.320;2024-02-26T01:42:55;10.40;90.60
26579;DHT22;14227;47.674;19.320;2024-02-26T01:45:20;10.40;90.70
26579;DHT22;14227;47.674;19.320;2024-02-26T01:47:52;10.30;90.70
26579;DHT22;14227;47.674;19.320;2024-02-26T01:50:20;10.30;90.80
26579;DHT22;14227;47.674;19.320;2024-02-26T01:52:49;10.30;90.50
26579;DHT22;14227;47.674;19.320;2024-02-26T01:55:15;10.30;90.50
26579;DHT22;14227;47.674;19.320;2024-02-26T01:57:43;10.30;90.60
26579;DHT22;14227;47.674;19.320;2024-02-26T02:00:09;10.30;90.50
26579;DHT22;14227;47.674;19.320;2024-02-26T02:02:36;10.30;90.60
26579;DHT22;14227;47.674;19.320;2024-02-26T02:05:02;10.30;90.60
26579;DHT22;14227;47.674;19.320;2024-02-26T02:07:29;10.30;90.90
26579;DHT22;14227;47.674;19.320;2024-02-26T02:09:55;10.40;90.70
26579;DHT22;14227;47.674;19.320;2024-02-26T02:12:22;10.40;90.60
26579;DHT22;14227;47.674;19.320;2024-02-26T02:14:47;10.40;90.70
26579;DHT22;14227;47.674;19.320;2024-02-26T02:17:13;10.40;90.70
26579;DHT22;14227;47.674;19.320;2024-02-26T02:19:39;10.40;90.90
26579;DHT22;14227;47.674;19.320;2024-02-26T02:22:04;10.40;90.90
26579;DHT22;14227;47.674;19.320;2024-02-26T02:24:30;10.50;91.00
26579;DHT22;14227;47.674;19.320;2024-02-26T02:26:56;10.50;90.90
26579;DHT22;14227;47.674;19.320;2024-02-26T02:29:22;10.50;90.80
26579;DHT22;14227;47.674;19.320;2024-02-26T02:31:48;10.50;90.80
26579;DHT22;14227;47.674;19.320;2024-02-26T02:34:14;10.50;90.60
26579;DHT22;14227;47.674;19.320;2024-02-26T02:36:52;10.50;90.80
26579;DHT22;14227;47.674;19.320;2024-02-26T02:39:18;10.50;90.70
26579;DHT22;14227;47.674;19.320;2024-02-26T02:41:44;10.50;90.90
26579;DHT22;14227;47.674;19.320;2024-02-26T02:44:09;10.50;91.00
26579;DHT22;14227;47.674;19.320;2024-02-26T02:46:35;10.50;91.00
26579;DHT22;14227;47.674;19.320;2024-02-26T02:49:01;10.60;91.00
26579;DHT22;14227;47.674;19.320;2024-02-26T02:51:27;10.60;90.80
26579;DHT22;14227;47.674;19.320;2024-02-26T02:53:52;10.60;90.80
26579;DHT22;14227;47.674;19.320;2024-02-26T02:56:18;10.60;90.90
26579;DHT22;14227;47.674;19.320;2024-02-26T02:58:44;10.60;90.80
26579;DHT22;14227;47.674;19.320;2024-02-26T03:01:10;10.60;90.70
26579;DHT22;14227;47.674;19.320;2024-02-26T03:03:36;10.70;90.70
26579;DHT22;14227;47.674;19.320;2024-02-26T03:06:03;10.70;90.70
26579;DHT22;14227;47.674;19.320;2024-02-26T03:08:29;10.60;90.60
26579;DHT22;14227;47.674;19.320;2024-02-26T03:10:54;10.70;90.60
26579;DHT22;14227;47.674;19.320;2024-02-26T03:13:20;10.70;90.50
26579;DHT22;14227;47.674;19.320;2024-02-26T03:15:46;10.70;90.50
26579;DHT22;14227;47.674;19.320;2024-02-26T03:18:12;10.70;90.50
26579;DHT22;14227;47.674;19.320;2024-02-26T03:20:37;10.70;90.60
26579;DHT22;14227;47.674;19.320;2024-02-26T03:23:03;10.70;90.70
26579;DHT22;14227;47.674;19.320;2024-02-26T03:25:29;10.70;90.60
26579;DHT22;14227;47.674;19.320;2024-02-26T03:27:55;10.70;90.50
26579;DHT22;14227;47.674;19.320;2024-02-26T03:30:20;10.70;90.60
26579;DHT22;14227;47.674;19.320;2024-02-26T03:32:46;10.70;90.70
26579;DHT22;14227;47.674;19.320;2024-02-26T03:35:13;10.70;90.60
26579;DHT22;14227;47.674;19.320;2024-02-26T03:37:39;10.70;90.40
26579;DHT22;14227;47.674;19.320;2024-02-26T03:40:05;10.80;90.40
26579;DHT22;14227;47.674;19.320;2024-02-26T03:42:31;10.80;90.50
26579;DHT22;14227;47.674;19.320;2024-02-26T03:44:57;10.80;90.50
26579;DHT22;14227;47.674;19.320;2024-02-26T03:47:22;10.80;90.60
26579;DHT22;14227;47.674;19.320;2024-02-26T03:49:48;10.80;90.50
26579;DHT22;14227;47.674;19.320;2024-02-26T03:52:16;10.80;90.60
26579;DHT22;14227;47.674;19.320;2024-02-26T03:54:42;10.80;90.50
26579;DHT22;14227;47.674;19.320;2024-02-26T03:57:07;10.80;90.50
26579;DHT22;14227;47.674;19.320;2024-02-26T03:59:33;10.80;90.50
26579;DHT22;14227;47.674;19.320;2024-02-26T04:01:59;10.90;90.60
26579;DHT22;14227;47.674;19.320;2024-02-26T04:04:27;10.90;90.50
26579;DHT22;14227;47.674;19.320;2024-02-26T04:06:52;10.80;90.40
26579;DHT22;14227;47.674;19.320;2024-02-26T04:09:18;10.80;90.40
26579;DHT22;14227;47.674;19.320;2024-02-26T04:11:44;10.80;90.50
26579;DHT22;14227;47.674;19.320;2024-02-26T04:14:09;10.90;90.60
26579;DHT22;14227;47.674;19.320;2024-02-26T04:16:37;10.90;90.70
26579;DHT22;14227;47.674;19.320;2024-02-26T04:19:03;10.80;90.60
26579;DHT22;14227;47.674;19.320;2024-02-26T04:21:28;10.90;90.90
26579;DHT22;14227;47.674;19.320;2024-02-26T04:23:54;10.80;90.60
26579;DHT22;14227;47.674;19.320;2024-02-26T04:26:26;10.80;90.60
26579;DHT22;14227;47.674;19.320;2024-02-26T04:28:52;10.90;90.60
26579;DHT22;14227;47.674;19.320;2024-02-26T04:31:18;10.90;90.60
26579;DHT22;14227;47.674;19.320;2024-02-26T04:33:44;10.80;90.50
26579;DHT22;14227;47.674;19.320;2024-02-26T04:36:16;10.90;90.60
26579;DHT22;14227;47.674;19.320;2024-02-26T04:38:43;10.80;90.50
26579;DHT22;14227;47.674;19.320;2024-02-26T04:41:08;10.90;90.70
26579;DHT22;14227;47.674;19.320;2024-02-26T04:43:34;10.90;90.80
26579;DHT22;14227;47.674;19.320;2024-02-26T04:46:01;10.90;90.80
26579;DHT22;14227;47.674;19.320;2024-02-26T04:48:27;10.90;90.70
26579;DHT22;14227;47.674;19.320;2024-02-26T04:50:53;10.80;90.50
26579;DHT22;14227;47.674;19.320;2024-02-26T04:53:19;10.90;90.30
26579;DHT22;14227;47.674;19.320;2024-02-26T04:55:44;10.80;90.30
26579;DHT22;14227;47.674;19.320;2024-02-26T04:58:10;10.80;90.20
26579;DHT22;14227;47.674;19.320;2024-02-26T05:00:36;10.80;90.30
26579;DHT22;14227;47.674;19.320;2024-02-26T05:03:01;10.80;90.20
26579;DHT22;14227;47.674;19.320;2024-02-26T05:05:27;10.70;90.20
26579;DHT22;14227;47.674;19.320;2024-02-26T05:07:53;10.70;90.10
26579;DHT22;14227;47.674;19.320;2024-02-26T05:10:18;10.70;90.10
26579;DHT22;14227;47.674;19.320;2024-02-26T05:12:44;10.70;90.10
26579;DHT22;14227;47.674;19.320;2024-02-26T05:15:10;10.60;89.90
26579;DHT22;14227;47.674;19.320;2024-02-26T05:17:38;10.60;89.90
26579;DHT22;14227;47.674;19.320;2024-02-26T05:20:06;10.50;90.00
26579;DHT22;14227;47.674;19.320;2024-02-26T05:22:34;10.50;90.00
26579;DHT22;14227;47.674;19.320;2024-02-26T05:25:00;10.50;90.00
26579;DHT22;14227;47.674;19.320;2024-02-26T05:27:26;10.50;90.10
26579;DHT22;14227;47.674;19.320;2024-02-26T05:29:51;10.50;90.20
26579;DHT22;14227;47.674;19.320;2024-02-26T05:32:22;10.40;90.40
26579;DHT22;14227;47.674;19.320;2024-02-26T05:34:47;10.50;90.80
26579;DHT22;14227;47.674;19.320;2024-02-26T05:37:16;10.50;90.90
26579;DHT22;14227;47.674;19.320;2024-02-26T05:39:41;10.50;90.80
26579;DHT22;14227;47.674;19.320;2024-02-26T05:42:07;10.50;91.00
26579;DHT22;14227;47.674;19.320;2024-02-26T05:44:34;10.50;91.00
26579;DHT22;14227;47.674;19.320;2024-02-26T05:47:02;10.60;91.00
26579;DHT22;14227;47.674;19.320;2024-02-26T05:49:28;10.60;91.10
26579;DHT22;14227;47.674;19.320;2024-02-26T05:51:54;10.60;91.10
26579;DHT22;14227;47.674;19.320;2024-02-26T05:54:19;10.60;91.00
26579;DHT22;14227;47.674;19.320;2024-02-26T05:56:45;10.70;91.30
26579;DHT22;14227;47.674;19.320;2024-02-26T05:59:11;10.60;91.20
26579;DHT22;14227;47.674;19.320;2024-02-26T06:01:36;10.70;91.30
26579;DHT22;14227;47.674;19.320;2024-02-26T06:04:02;10.70;91.20
26579;DHT22;14227;47.674;19.320;2024-02-26T06:06:28;10.70;91.20
26579;DHT22;14227;47.674;19.320;2024-02-26T06:08:53;10.80;91.30
26579;DHT22;14227;47.674;19.320;2024-02-26T06:11:19;10.80;91.50
26579;DHT22;14227;47.674;19.320;2024-02-26T06:13:45;10.80;91.40
26579;DHT22;14227;47.674;19.320;2024-02-26T06:16:11;10.90;91.50
26579;DHT22;14227;47.674;19.320;2024-02-26T06:18:36;10.90;91.50
26579;DHT22;14227;47.674;19.320;2024-02-26T06:21:02;10.90;91.50
26579;DHT22;14227;47.674;19.320;2024-02-26T06:23:28;10.90;91.30
26579;DHT22;14227;47.674;19.320;2024-02-26T06:25:54;11.00;91.50
26579;DHT22;14227;47.674;19.320;2024-02-26T06:28:19;11.00;91.50
26579;DHT22;14227;47.674;19.320;2024-02-26T06:30:45;11.10;91.60
26579;DHT22;14227;47.674;19.320;2024-02-26T06:33:11;11.10;91.60
26579;DHT22;14227;47.674;19.320;2024-02-26T06:35:38;11.10;91.60
26579;DHT22;14227;47.674;19.320;2024-02-26T06:38:04;11.10;91.60
26579;DHT22;14227;47.674;19.320;2024-02-26T06:40:29;11.20;91.60
26579;DHT22;14227;47.674;19.320;2024-02-26T06:42:55;11.30;91.70
26579;DHT22;14227;47.674;19.320;2024-02-26T06:45:22;11.30;91.70
26579;DHT22;14227;47.674;19.320;2024-02-26T06:47:48;11.40;91.60
26579;DHT22;14227;47.674;19.320;2024-02-26T06:50:14;11.40;91.70
26579;DHT22;14227;47.674;19.320;2024-02-26T06:52:39;11.40;91.70
26579;DHT22;14227;47.674;19.320;2024-02-26T06:55:06;11.60;91.80
26579;DHT22;14227;47.674;19.320;2024-02-26T06:57:34;11.60;91.30
26579;DHT22;14227;47.674;19.320;2024-02-26T07:00:00;11.70;91.40
26579;DHT22;14227;47.674;19.320;2024-02-26T07:02:25;11.70;91.20
26579;DHT22;14227;47.674;19.320;2024-02-26T07:04:51;11.70;90.90
26579;DHT22;14227;47.674;19.320;2024-02-26T07:07:17;11.60;91.00
26579;DHT22;14227;47.674;19.320;2024-02-26T07:09:44;11.80;91.00
26579;DHT22;14227;47.674;19.320;2024-02-26T07:12:10;11.80;90.90
26579;DHT22;14227;47.674;19.320;2024-02-26T07:14:35;11.80;90.80
26579;DHT22;14227;47.674;19.320;2024-02-26T07:17:03;11.90;90.60
26579;DHT22;14227;47.674;19.320;2024-02-26T07:19:29;11.90;90.90
26579;DHT22;14227;47.674;19.320;2024-02-26T07:21:54;11.90;90.40
26579;DHT22;14227;47.674;19.320;2024-02-26T07:24:21;11.90;90.20
26579;DHT22;14227;47.674;19.320;2024-02-26T07:26:46;12.00;90.50
26579;DHT22;14227;47.674;19.320;2024-02-26T07:29:12;12.00;91.10
26579;DHT22;14227;47.674;19.320;2024-02-26T07:31:38;12.10;91.10
26579;DHT22;14227;47.674;19.320;2024-02-26T07:34:03;12.20;90.80
26579;DHT22;14227;47.674;19.320;2024-02-26T07:36:29;12.30;91.00
26579;DHT22;14227;47.674;19.320;2024-02-26T07:38:55;12.40;91.50
26579;DHT22;14227;47.674;19.320;2024-02-26T07:41:21;12.50;91.00
26579;DHT22;14227;47.674;19.320;2024-02-26T07:43:46;12.60;90.90
26579;DHT22;14227;47.674;19.320;2024-02-26T07:46:12;12.70;91.30
26579;DHT22;14227;47.674;19.320;2024-02-26T07:48:38;12.70;89.70
26579;DHT22;14227;47.674;19.320;2024-02-26T07:51:04;12.70;90.30
26579;DHT22;14227;47.674;19.320;2024-02-26T07:53:30;12.80;90.10
26579;DHT22;14227;47.674;19.320;2024-02-26T07:55:56;12.80;90.40
26579;DHT22;14227;47.674;19.320;2024-02-26T07:58:23;12.90;90.00
26579;DHT22;14227;47.674;19.320;2024-02-26T08:00:49;13.00;88.20
26579;DHT22;14227;47.674;19.320;2024-02-26T08:03:15;13.00;88.20
26579;DHT22;14227;47.674;19.320;2024-02-26T08:05:41;13.00;86.70
26579;DHT22;14227;47.674;19.320;2024-02-26T08:08:08;13.00;86.40
26579;DHT22;14227;47.674;19.320;2024-02-26T08:10:34;13.00;86.60
26579;DHT22;14227;47.674;19.320;2024-02-26T08:13:00;13.00;87.00
26579;DHT22;14227;47.674;19.320;2024-02-26T08:15:34;13.20;87.60
26579;DHT22;14227;47.674;19.320;2024-02-26T08:18:01;13.30;88.00
26579;DHT22;14227;47.674;19.320;2024-02-26T08:20:31;13.40;87.00
26579;DHT22;14227;47.674;19.320;2024-02-26T08:22:57;13.50;88.00
26579;DHT22;14227;47.674;19.320;2024-02-26T08:25:23;13.70;88.50
26579;DHT22;14227;47.674;19.320;2024-02-26T08:27:49;13.80;87.50
26579;DHT22;14227;47.674;19.320;2024-02-26T08:30:16;13.80;87.00
26579;DHT22;14227;47.674;19.320;2024-02-26T08:32:48;13.90;84.60
26579;DHT22;14227;47.674;19.320;2024-02-26T08:35:14;13.90;86.00
26579;DHT22;14227;47.674;19.320;2024-02-26T08:37:40;14.00;87.60
26579;DHT22;14227;47.674;19.320;2024-02-26T08:40:07;14.10;87.60
26579;DHT22;14227;47.674;19.320;2024-02-26T08:42:32;14.20;87.70
26579;DHT22;14227;47.674;19.320;2024-02-26T08:44:58;14.20;86.70
26579;DHT22;14227;47.674;19.320;2024-02-26T08:47:27;14.30;85.80
26579;DHT22;14227;47.674;19.320;2024-02-26T08:49:53;14.40;85.10
26579;DHT22;14227;47.674;19.320;2024-02-26T08:52:19;14.40;83.60
26579;DHT22;14227;47.674;19.320;2024-02-26T08:54:45;14.40;84.30
26579;DHT22;14227;47.674;19.320;2024-02-26T08:57:10;14.40;81.10
26579;DHT22;14227;47.674;19.320;2024-02-26T08:59:36;14.40;82.00
26579;DHT22;14227;47.674;19.320;2024-02-26T09:02:02;14.40;83.60
26579;DHT22;14227;47.674;19.320;2024-02-26T09:04:28;14.40;83.10
26579;DHT22;14227;47.674;19.320;2024-02-26T09:06:53;14.40;80.40
26579;DHT22;14227;47.674;19.320;2024-02-26T09:09:20;14.40;82.20
26579;DHT22;14227;47.674;19.320;2024-02-26T09:11:47;14.50;83.20
26579;DHT22;14227;47.674;19.320;2024-02-26T09:14:14;14.50;83.10
26579;DHT22;14227;47.674;19.320;2024-02-26T09:16:39;14.60;83.40
26579;DHT22;14227;47.674;19.320;2024-02-26T09:19:05;14.50;79.50
26579;DHT22;14227;47.674;19.320;2024-02-26T09:21:31;14.50;82.00
26579;DHT22;14227;47.674;19.320;2024-02-26T09:23:56;14.60;82.10
26579;DHT22;14227;47.674;19.320;2024-02-26T09:26:22;14.70;81.20
26579;DHT22;14227;47.674;19.320;2024-02-26T09:28:47;14.70;81.30
26579;DHT22;14227;47.674;19.320;2024-02-26T09:31:15;14.70;78.60
26579;DHT22;14227;47.674;19.320;2024-02-26T09:33:42;14.80;78.50
26579;DHT22;14227;47.674;19.320;2024-02-26T09:36:08;14.60;76.90
26579;DHT22;14227;47.674;19.320;2024-02-26T09:38:35;14.60;77.70
26579;DHT22;14227;47.674;19.320;2024-02-26T09:41:06;14.60;78.20
26579;DHT22;14227;47.674;19.320;2024-02-26T09:43:36;14.70;81.40
26579;DHT22;14227;47.674;19.320;2024-02-26T09:46:03;14.90;81.40
26579;DHT22;14227;47.674;19.320;2024-02-26T09:48:30;15.00;80.20
26579;DHT22;14227;47.674;19.320;2024-02-26T09:50:56;15.10;79.90
26579;DHT22;14227;47.674;19.320;2024-02-26T09:53:22;15.20;81.40
26579;DHT22;14227;47.674;19.320;2024-02-26T09:55:48;15.30;78.10
26579;DHT22;14227;47.674;19.320;2024-02-26T09:58:14;15.30;79.80
26579;DHT22;14227;47.674;19.320;2024-02-26T10:00:47;15.40;78.50
26579;DHT22;14227;47.674;19.320;2024-02-26T10:03:17;15.60;79.20
26579;DHT22;14227;47.674;19.320;2024-02-26T10:05:44;15.70;75.90
26579;DHT22;14227;47.674;19.320;2024-02-26T10:08:11;15.90;75.60
26579;DHT22;14227;47.674;19.320;2024-02-26T10:10:39;16.10;75.40
26579;DHT22;14227;47.674;19.320;2024-02-26T10:13:04;16.20;73.50
26579;DHT22;14227;47.674;19.320;2024-02-26T10:15:36;16.30;71.50
26579;DHT22;14227;47.674;19.320;2024-02-26T10:18:05;16.40;68.80
26579;DHT22;14227;47.674;19.320;2024-02-26T10:20:31;16.40;69.80
26579;DHT22;14227;47.674;19.320;2024-02-26T10:22:58;16.50;67.30
26579;DHT22;14227;47.674;19.320;2024-02-26T10:25:23;16.40;66.50
26579;DHT22;14227;47.674;19.320;2024-02-26T10:27:49;16.40;67.30
26579;DHT22;14227;47.674;19.320;2024-02-26T10:32:41;16.30;66.70
26579;DHT22;14227;47.674;19.320;2024-02-26T10:35:10;16.20;67.70
26579;DHT22;14227;47.674;19.320;2024-02-26T10:37:36;16.30;69.50
26579;DHT22;14227;47.674;19.320;2024-02-26T10:40:02;16.30;68.80
26579;DHT22;14227;47.674;19.320;2024-02-26T10:42:30;16.40;70.10
26579;DHT22;14227;47.674;19.320;2024-02-26T10:44:55;16.40;69.20
26579;DHT22;14227;47.674;19.320;2024-02-26T10:47:24;16.40;69.10
26579;DHT22;14227;47.674;19.320;2024-02-26T10:49:50;16.30;66.90
26579;DHT22;14227;47.674;19.320;2024-02-26T10:52:19;16.40;67.60
26579;DHT22;14227;47.674;19.320;2024-02-26T10:54:47;16.40;66.80
26579;DHT22;14227;47.674;19.320;2024-02-26T10:57:13;16.40;68.30
26579;DHT22;14227;47.674;19.320;2024-02-26T10:59:42;16.60;69.00
26579;DHT22;14227;47.674;19.320;2024-02-26T11:02:10;16.80;67.30
26579;DHT22;14227;47.674;19.320;2024-02-26T11:04:37;17.00;65.80
26579;DHT22;14227;47.674;19.320;2024-02-26T11:07:04;17.30;64.70
26579;DHT22;14227;47.674;19.320;2024-02-26T11:09:32;17.60;63.50
26579;DHT22;14227;47.674;19.320;2024-02-26T11:11:59;18.00;60.60
26579;DHT22;14227;47.674;19.320;2024-02-26T11:14:26;18.40;60.30
26579;DHT22;14227;47.674;19.320;2024-02-26T11:16:51;18.70;56.70
26579;DHT22;14227;47.674;19.320;2024-02-26T11:19:18;19.00;59.20
26579;DHT22;14227;47.674;19.320;2024-02-26T11:21:44;19.40;57.40
26579;DHT22;14227;47.674;19.320;2024-02-26T11:24:13;19.60;54.70
26579;DHT22;14227;47.674;19.320;2024-02-26T11:26:55;19.80;57.00
26579;DHT22;14227;47.674;19.320;2024-02-26T11:29:27;20.00;55.00
26579;DHT22;14227;47.674;19.320;2024-02-26T11:31:54;20.10;51.40
26579;DHT22;14227;47.674;19.320;2024-02-26T11:34:20;20.40;53.10
26579;DHT22;14227;47.674;19.320;2024-02-26T11:36:46;20.40;51.40
26579;DHT22;14227;47.674;19.320;2024-02-26T11:39:12;20.30;51.30
26579;DHT22;14227;47.674;19.320;2024-02-26T11:41:42;20.40;53.70
26579;DHT22;14227;47.674;19.320;2024-02-26T11:44:08;20.40;51.80
26579;DHT22;14227;47.674;19.320;2024-02-26T11:46:39;20.50;53.50
26579;DHT22;14227;47.674;19.320;2024-02-26T11:51:57;20.70;53.40
26579;DHT22;14227;47.674;19.320;2024-02-26T11:57:04;20.80;48.60
26579;DHT22;14227;47.674;19.320;2024-02-26T11:59:39;20.80;49.50
26579;DHT22;14227;47.674;19.320;2024-02-26T12:02:07;20.80;50.00
26579;DHT22;14227;47.674;19.320;2024-02-26T12:04:33;20.80;48.80
26579;DHT22;14227;47.674;19.320;2024-02-26T12:07:02;20.90;49.70
26579;DHT22;14227;47.674;19.320;2024-02-26T12:09:41;20.80;49.60
26579;DHT22;14227;47.674;19.320;2024-02-26T12:12:17;20.80;52.00
26579;DHT22;14227;47.674;19.320;2024-02-26T12:14:55;20.50;49.70
26579;DHT22;14227;47.674;19.320;2024-02-26T12:17:23;20.30;53.40
26579;DHT22;14227;47.674;19.320;2024-02-26T12:19:49;20.50;51.70
26579;DHT22;14227;47.674;19.320;2024-02-26T12:22:16;21.10;49.60
26579;DHT22;14227;47.674;19.320;2024-02-26T12:24:42;21.10;46.20
26579;DHT22;14227;47.674;19.320;2024-02-26T12:27:08;20.90;47.60
26579;DHT22;14227;47.674;19.320;2024-02-26T12:29:34;20.60;47.90
26579;DHT22;14227;47.674;19.320;2024-02-26T12:32:00;20.40;48.30
26579;DHT22;14227;47.674;19.320;2024-02-26T12:34:26;20.20;48.80
26579;DHT22;14227;47.674;19.320;2024-02-26T12:36:54;19.90;51.50
26579;DHT22;14227;47.674;19.320;2024-02-26T12:39:20;19.70;48.40
26579;DHT22;14227;47.674;19.320;2024-02-26T12:41:46;19.50;49.90
26579;DHT22;14227;47.674;19.320;2024-02-26T12:44:18;19.20;51.60
26579;DHT22;14227;47.674;19.320;2024-02-26T12:46:44;18.80;52.90
26579;DHT22;14227;47.674;19.320;2024-02-26T12:49:15;18.70;53.80
26579;DHT22;14227;47.674;19.320;2024-02-26T12:51:44;18.50;53.10
26579;DHT22;14227;47.674;19.320;2024-02-26T12:54:10;18.20;53.30
26579;DHT22;14227;47.674;19.320;2024-02-26T12:56:35;18.00;53.30
26579;DHT22;14227;47.674;19.320;2024-02-26T12:59:02;18.00;54.60
26579;DHT22;14227;47.674;19.320;2024-02-26T13:01:29;18.00;55.60
26579;DHT22;14227;47.674;19.320;2024-02-26T13:03:55;18.00;55.70
26579;DHT22;14227;47.674;19.320;2024-02-26T13:06:22;18.10;53.30
26579;DHT22;14227;47.674;19.320;2024-02-26T13:08:48;18.30;56.20
26579;DHT22;14227;47.674;19.320;2024-02-26T13:11:14;18.50;55.80
26579;DHT22;14227;47.674;19.320;2024-02-26T13:13:40;18.80;51.40
26579;DHT22;14227;47.674;19.320;2024-02-26T13:16:09;19.20;49.40
26579;DHT22;14227;47.674;19.320;2024-02-26T13:18:35;19.50;44.90
26579;DHT22;14227;47.674;19.320;2024-02-26T13:21:15;19.70;46.10
26579;DHT22;14227;47.674;19.320;2024-02-26T13:23:42;19.90;48.60
26579;DHT22;14227;47.674;19.320;2024-02-26T13:26:08;20.20;48.20
26579;DHT22;14227;47.674;19.320;2024-02-26T13:28:37;20.40;46.90
26579;DHT22;14227;47.674;19.320;2024-02-26T13:31:03;20.40;44.50
26579;DHT22;14227;47.674;19.320;2024-02-26T13:33:30;20.20;44.30
26579;DHT22;14227;47.674;19.320;2024-02-26T13:35:57;20.00;44.10
26579;DHT22;14227;47.674;19.320;2024-02-26T13:38:23;19.90;46.30
26579;DHT22;14227;47.674;19.320;2024-02-26T13:40:50;19.80;45.40
26579;DHT22;14227;47.674;19.320;2024-02-26T13:43:16;19.70;46.00
26579;DHT22;14227;47.674;19.320;2024-02-26T13:45:43;19.70;45.90
26579;DHT22;14227;47.674;19.320;2024-02-26T13:48:10;19.70;46.50
26579;DHT22;14227;47.674;19.320;2024-02-26T13:50:37;19.70;47.00
26579;DHT22;14227;47.674;19.320;2024-02-26T13:53:03;19.60;47.60
26579;DHT22;14227;47.674;19.320;2024-02-26T13:55:30;19.50;47.00
26579;DHT22;14227;47.674;19.320;2024-02-26T13:57:58;19.50;47.30
26579;DHT22;14227;47.674;19.320;2024-02-26T14:00:24;19.30;47.90
26579;DHT22;14227;47.674;19.320;2024-02-26T14:02:52;19.20;47.70
26579;DHT22;14227;47.674;19.320;2024-02-26T14:05:18;19.10;49.40
26579;DHT22;14227;47.674;19.320;2024-02-26T14:07:43;19.00;50.00
26579;DHT22;14227;47.674;19.320;2024-02-26T14:10:11;18.80;50.50
26579;DHT22;14227;47.674;19.320;2024-02-26T14:12:38;18.70;51.40
26579;DHT22;14227;47.674;19.320;2024-02-26T14:15:07;18.60;52.00
26579;DHT22;14227;47.674;19.320;2024-02-26T14:17:33;18.50;51.10
26579;DHT22;14227;47.674;19.320;2024-02-26T14:19:59;18.30;52.00
26579;DHT22;14227;47.674;19.320;2024-02-26T14:22:25;18.30;50.50
26579;DHT22;14227;47.674;19.320;2024-02-26T14:24:56;18.30;51.50
26579;DHT22;14227;47.674;19.320;2024-02-26T14:27:22;18.20;50.40
26579;DHT22;14227;47.674;19.320;2024-02-26T14:29:48;18.10;50.80
26579;DHT22;14227;47.674;19.320;2024-02-26T14:32:14;18.00;51.60
26579;DHT22;14227;47.674;19.320;2024-02-26T14:34:39;17.80;50.70
26579;DHT22;14227;47.674;19.320;2024-02-26T14:37:05;17.70;50.70
26579;DHT22;14227;47.674;19.320;2024-02-26T14:39:32;17.50;51.10
26579;DHT22;14227;47.674;19.320;2024-02-26T14:41:58;17.50;51.40
26579;DHT22;14227;47.674;19.320;2024-02-26T14:44:24;17.50;52.70
26579;DHT22;14227;47.674;19.320;2024-02-26T14:46:50;17.60;52.20
26579;DHT22;14227;47.674;19.320;2024-02-26T14:49:16;17.50;52.70
26579;DHT22;14227;47.674;19.320;2024-02-26T14:51:45;17.50;52.70
26579;DHT22;14227;47.674;19.320;2024-02-26T14:54:12;17.30;52.90
26579;DHT22;14227;47.674;19.320;2024-02-26T14:56:38;17.20;54.20
26579;DHT22;14227;47.674;19.320;2024-02-26T14:59:04;17.10;54.30
26579;DHT22;14227;47.674;19.320;2024-02-26T15:01:30;16.90;54.60
26579;DHT22;14227;47.674;19.320;2024-02-26T15:03:56;16.70;54.80
26579;DHT22;14227;47.674;19.320;2024-02-26T15:06:23;16.70;55.20
26579;DHT22;14227;47.674;19.320;2024-02-26T15:08:48;16.70;54.80
26579;DHT22;14227;47.674;19.320;2024-02-26T15:11:14;16.80;53.80
26579;DHT22;14227;47.674;19.320;2024-02-26T15:13:40;16.70;53.60
26579;DHT22;14227;47.674;19.320;2024-02-26T15:16:06;16.70;53.30
26579;DHT22;14227;47.674;19.320;2024-02-26T15:18:32;16.50;53.70